Pagrindinis puslapis
METAR-TAF:

METAR-TAF

Oro uostai :

Formosa, Argentina

platuma: 26-12S, ilguma: 058-14W, Aukštis: 59 m

Dabartinis oras

Ataskaita buvo paskelbta 24 minutes, ne 09:00 UTC
Vėjas 8 kt iš Pietų/Pietvakarių
Temperatūra 16°C
Drėgmė 72%
Slėgis 1011 hPa
Matomumas 10 km arba daugiau
Su prošvaistėmis ne aukštis 2000 ft
Apsiniaukę ne aukštis 10000 ft

METAR: SARF 180900Z 20008KT 9999 BKN020 OVC100 16/11 Q1011

Laikas: 06:24 (09:24 UTC)

Prognozė

Ataskaita buvo paskelbta 4 valandos ir 24 minutes, ne 05:00 UTC
Prognozė galioja nuo 18 metu 06 UTC su 19 metu 06 UTC
Vėjas 5 kt iš Vakarų
Matomumas 10 km arba daugiau
Apsiniaukę ne aukštis 1500 ft
Tikimybė 40%
nuo 18 metu 08 UTC su 18 metu 10 UTC
Matomumas: 7000 m
Apsiniaukę ne aukštis 1500 ft
Su prošvaistėmis ne aukštis 4000 ft
lietus
Tapsmas
nuo 18 metu 14 UTC su 18 metu 15 UTC
Matomumas 10 km arba daugiau
nėra debesų žemiau 1500 m ir nėra kamuolinių lietaus debesų

TAF: SARF 180500Z 1806/1906 27005KT 9999 OVC015 TX26/1818Z TN12/1810Z PROB40 1808/1810 7000 -RA OVC015 BKN040 BECMG 1814/1815 CAVOK

Orai ataskaitas ir orų prognozės (METAR, TAF).

turimą stotys yra geltonos ir raudonos taškus žemėlapyje.

Perkelti pele per norėdami pamatyti stoties vardą.

Tada spustelėkite, norėdami matyti oro stebėjimo ir prognozės.

Norėdami pakeisti žemėlapį: spustelėkite ant žalios mygtukų su juodo kryžiaus žemyn,; žalią mygtuką su brūkšneliu, jei norite nutolinti; arba žalių rodyklių gretimoms žemėlapius.


METAR-TAF: